Time,TemperatureF,DewpointF,PressureIn,WindDirection,WindDirectionDegrees,WindSpeedMPH,WindSpeedGustMPH,Humidity,HourlyPrecipIn,Conditions,Clouds,dailyrainin,SoftwareType,DateUTC
2013-09-30 00:01:00,59.9,54.7,29.87,North,-999,-999.0,0.0,83,0.00,,---,0.00,VWS V14.01,2013-09-30 04:01:00,
2013-09-30 00:02:00,59.9,54.7,29.87,North,-999,-999.0,0.0,83,0.00,,---,0.00,VWS V14.01,2013-09-30 04:02:00,
2013-09-30 00:04:00,59.9,54.7,29.87,North,-999,-999.0,0.0,83,0.00,,---,0.00,VWS V14.01,2013-09-30 04:04:00,
2013-09-30 00:06:00,60.1,54.9,29.87,North,-999,-999.0,0.0,83,0.00,,---,0.00,VWS V14.01,2013-09-30 04:06:00,
2013-09-30 00:08:00,60.1,54.9,29.87,North,-999,-999.0,0.0,83,0.00,,---,0.00,VWS V14.01,2013-09-30 04:08:00,
2013-09-30 00:14:00,60.1,55.3,29.87,North,-999,-999.0,0.0,84,0.00,,---,0.00,VWS V14.01,2013-09-30 04:14:00,
2013-09-30 00:19:00,60.1,55.3,29.87,North,-999,-999.0,0.0,84,0.00,,---,0.00,VWS V14.01,2013-09-30 04:19:00,
2013-09-30 00:24:00,60.1,55.3,29.87,North,-999,-999.0,0.0,84,0.00,,---,0.00,VWS V14.01,2013-09-30 04:24:00,
2013-09-30 00:29:00,60.1,55.3,29.87,North,-999,-999.0,0.0,84,0.00,,---,0.00,VWS V14.01,2013-09-30 04:29:00,
2013-09-30 00:34:00,60.3,55.5,29.86,North,-999,-999.0,0.0,84,0.00,,---,0.00,VWS V14.01,2013-09-30 04:34:00,
2013-09-30 00:39:00,60.3,55.5,29.86,North,-999,-999.0,0.0,84,0.00,,---,0.00,VWS V14.01,2013-09-30 04:39:00,
2013-09-30 00:44:00,60.3,55.5,29.87,North,-999,-999.0,0.0,84,0.00,,---,0.00,VWS V14.01,2013-09-30 04:44:00,
2013-09-30 00:49:00,60.3,55.5,29.87,North,-999,-999.0,0.0,84,0.00,,---,0.00,VWS V14.01,2013-09-30 04:49:00,
2013-09-30 00:54:00,60.3,55.5,29.87,North,-999,-999.0,0.0,84,0.00,,---,0.00,VWS V14.01,2013-09-30 04:54:00,
2013-09-30 00:59:00,60.3,55.8,29.87,North,-999,-999.0,0.0,85,0.00,,---,0.00,VWS V14.01,2013-09-30 04:59:00,
2013-09-30 01:04:00,60.3,55.8,29.87,North,-999,-999.0,0.0,85,0.00,,---,0.00,VWS V14.01,2013-09-30 05:04:00,
2013-09-30 01:10:00,60.5,56.0,29.87,North,-999,-999.0,0.0,85,0.00,,---,0.00,VWS V14.01,2013-09-30 05:10:00,
2013-09-30 01:15:00,60.5,56.0,29.87,North,-999,-999.0,0.0,85,0.00,,---,0.00,VWS V14.01,2013-09-30 05:15:00,
2013-09-30 01:20:00,60.7,56.2,29.86,North,-999,-999.0,0.0,85,0.00,,---,0.00,VWS V14.01,2013-09-30 05:20:00,
2013-09-30 01:25:00,60.5,56.0,29.86,North,-999,-999.0,0.0,85,0.00,,---,0.00,VWS V14.01,2013-09-30 05:25:00,
2013-09-30 01:30:00,60.5,56.0,29.86,North,-999,-999.0,0.0,85,0.00,,---,0.00,VWS V14.01,2013-09-30 05:30:00,
2013-09-30 01:35:00,60.5,56.0,29.86,North,-999,-999.0,0.0,85,0.00,,---,0.00,VWS V14.01,2013-09-30 05:35:00,
2013-09-30 01:40:00,60.5,56.0,29.86,North,-999,-999.0,0.0,85,0.00,,---,0.00,VWS V14.01,2013-09-30 05:40:00,
2013-09-30 01:45:00,60.5,56.0,29.86,North,-999,-999.0,0.0,85,0.00,,---,0.00,VWS V14.01,2013-09-30 05:45:00,
2013-09-30 01:50:00,60.5,56.0,29.86,North,-999,-999.0,0.0,85,0.00,,---,0.00,VWS V14.01,2013-09-30 05:50:00,
2013-09-30 01:55:00,60.5,56.0,29.86,North,-999,-999.0,0.0,85,0.00,,---,0.00,VWS V14.01,2013-09-30 05:55:00,
2013-09-30 02:00:00,60.5,56.0,29.86,North,-999,-999.0,0.0,85,0.00,,---,0.00,VWS V14.01,2013-09-30 06:00:00,
2013-09-30 02:06:00,60.5,56.0,29.86,North,-999,-999.0,0.0,85,0.00,,---,0.00,VWS V14.01,2013-09-30 06:06:00,
2013-09-30 02:11:00,60.5,56.0,29.86,North,-999,-999.0,0.0,85,0.00,,---,0.00,VWS V14.01,2013-09-30 06:11:00,
2013-09-30 02:16:00,60.3,56.1,29.86,North,-999,-999.0,0.0,86,0.00,,---,0.00,VWS V14.01,2013-09-30 06:16:00,
2013-09-30 02:21:00,60.1,55.9,29.86,North,-999,-999.0,0.0,86,0.00,,---,0.00,VWS V14.01,2013-09-30 06:21:00,
2013-09-30 02:26:00,60.1,55.9,29.86,North,-999,-999.0,0.0,86,0.00,,---,0.00,VWS V14.01,2013-09-30 06:26:00,
2013-09-30 02:31:00,60.1,55.9,29.86,North,-999,-999.0,0.0,86,0.00,,---,0.00,VWS V14.01,2013-09-30 06:31:00,
2013-09-30 02:36:00,60.1,55.9,29.86,North,-999,-999.0,0.0,86,0.00,,---,0.00,VWS V14.01,2013-09-30 06:36:00,
2013-09-30 02:41:00,60.1,55.9,29.86,North,-999,-999.0,0.0,86,0.00,,---,0.00,VWS V14.01,2013-09-30 06:41:00,
2013-09-30 02:46:00,60.1,55.9,29.86,North,-999,-999.0,0.0,86,0.00,,---,0.00,VWS V14.01,2013-09-30 06:46:00,
2013-09-30 02:51:00,60.3,56.1,29.85,North,-999,-999.0,0.0,86,0.00,,---,0.00,VWS V14.01,2013-09-30 06:51:00,
2013-09-30 02:56:00,60.3,56.1,29.85,North,-999,-999.0,0.0,86,0.00,,---,0.00,VWS V14.01,2013-09-30 06:56:00,
2013-09-30 03:01:00,60.1,55.9,29.85,North,-999,-999.0,0.0,86,0.00,,---,0.00,VWS V14.01,2013-09-30 07:01:00,
2013-09-30 03:07:00,60.1,55.9,29.85,North,-999,-999.0,0.0,86,0.00,,---,0.00,VWS V14.01,2013-09-30 07:07:00,
2013-09-30 03:12:00,60.1,55.9,29.85,North,-999,-999.0,0.0,86,0.00,,---,0.00,VWS V14.01,2013-09-30 07:12:00,
2013-09-30 03:17:00,59.9,55.7,29.85,North,-999,-999.0,0.0,86,0.00,,---,0.00,VWS V14.01,2013-09-30 07:17:00,
2013-09-30 03:22:00,59.8,55.9,29.85,North,-999,-999.0,0.0,87,0.00,,---,0.00,VWS V14.01,2013-09-30 07:22:00,
2013-09-30 03:27:00,59.8,55.9,29.85,North,-999,-999.0,0.0,87,0.00,,---,0.00,VWS V14.01,2013-09-30 07:27:00,
2013-09-30 03:32:00,59.6,55.7,29.85,North,-999,-999.0,0.0,87,0.00,,---,0.00,VWS V14.01,2013-09-30 07:32:00,
2013-09-30 03:37:00,59.4,55.5,29.85,North,-999,-999.0,0.0,87,0.00,,---,0.00,VWS V14.01,2013-09-30 07:37:00,
2013-09-30 03:42:00,59.4,55.5,29.85,North,-999,-999.0,0.0,87,0.00,,---,0.00,VWS V14.01,2013-09-30 07:42:00,
2013-09-30 03:47:00,59.0,55.1,29.85,North,-999,-999.0,0.0,87,0.00,,---,0.00,VWS V14.01,2013-09-30 07:47:00,
2013-09-30 03:52:00,59.0,55.1,29.85,North,-999,-999.0,0.0,87,0.00,,---,0.00,VWS V14.01,2013-09-30 07:52:00,
2013-09-30 03:57:00,58.9,55.0,29.85,North,-999,-999.0,0.0,87,0.00,,---,0.00,VWS V14.01,2013-09-30 07:57:00,
2013-09-30 04:02:00,58.7,54.5,29.85,North,-999,-999.0,0.0,86,0.00,,---,0.00,VWS V14.01,2013-09-30 08:02:00,
2013-09-30 04:08:00,58.5,54.3,29.85,North,-999,-999.0,0.0,86,0.00,,---,0.00,VWS V14.01,2013-09-30 08:08:00,
2013-09-30 04:13:00,58.1,53.9,29.85,North,-999,-999.0,0.0,86,0.00,,---,0.00,VWS V14.01,2013-09-30 08:13:00,
2013-09-30 04:18:00,58.0,53.8,29.85,North,-999,-999.0,0.0,86,0.00,,---,0.00,VWS V14.01,2013-09-30 08:18:00,
2013-09-30 04:23:00,57.8,53.7,29.85,North,-999,-999.0,0.0,86,0.00,,---,0.00,VWS V14.01,2013-09-30 08:23:00,
2013-09-30 04:28:00,57.6,53.8,29.85,North,-999,-999.0,0.0,87,0.00,,---,0.00,VWS V14.01,2013-09-30 08:28:00,
2013-09-30 04:33:00,57.4,53.6,29.85,North,-999,-999.0,0.0,87,0.00,,---,0.00,VWS V14.01,2013-09-30 08:33:00,
2013-09-30 04:38:00,57.2,53.1,29.85,North,-999,-999.0,0.0,86,0.00,,---,0.00,VWS V14.01,2013-09-30 08:38:00,
2013-09-30 04:43:00,57.1,53.0,29.85,North,-999,-999.0,0.0,86,0.00,,---,0.00,VWS V14.01,2013-09-30 08:43:00,
2013-09-30 04:48:00,56.9,52.8,29.85,North,-999,-999.0,0.0,86,0.00,,---,0.00,VWS V14.01,2013-09-30 08:48:00,
2013-09-30 04:53:00,56.9,52.8,29.85,North,-999,-999.0,0.0,86,0.00,,---,0.00,VWS V14.01,2013-09-30 08:53:00,
2013-09-30 04:58:00,56.7,52.6,29.85,North,-999,-999.0,0.0,86,0.00,,---,0.00,VWS V14.01,2013-09-30 08:58:00,
2013-09-30 05:03:00,56.5,52.4,29.85,North,-999,-999.0,0.0,86,0.00,,---,0.00,VWS V14.01,2013-09-30 09:03:00,
2013-09-30 05:09:00,56.3,52.2,29.85,North,-999,-999.0,0.0,86,0.00,,---,0.00,VWS V14.01,2013-09-30 09:09:00,
2013-09-30 05:14:00,56.2,52.1,29.85,North,-999,-999.0,0.0,86,0.00,,---,0.00,VWS V14.01,2013-09-30 09:14:00,
2013-09-30 05:19:00,56.0,51.9,29.85,North,-999,-999.0,0.0,86,0.00,,---,0.00,VWS V14.01,2013-09-30 09:19:00,
2013-09-30 05:24:00,55.8,51.7,29.85,North,-999,-999.0,0.0,86,0.00,,---,0.00,VWS V14.01,2013-09-30 09:24:00,
2013-09-30 05:29:00,55.8,51.7,29.86,North,-999,-999.0,0.0,86,0.00,,---,0.00,VWS V14.01,2013-09-30 09:29:00,
2013-09-30 05:34:00,55.6,51.5,29.86,North,-999,-999.0,0.0,86,0.00,,---,0.00,VWS V14.01,2013-09-30 09:34:00,
2013-09-30 05:39:00,55.4,51.3,29.86,North,-999,-999.0,0.0,86,0.00,,---,0.00,VWS V14.01,2013-09-30 09:39:00,
2013-09-30 05:44:00,55.3,51.2,29.86,North,-999,-999.0,0.0,86,0.00,,---,0.00,VWS V14.01,2013-09-30 09:44:00,
2013-09-30 05:49:00,55.1,51.0,29.87,North,-999,-999.0,0.0,86,0.00,,---,0.00,VWS V14.01,2013-09-30 09:49:00,
2013-09-30 05:54:00,55.1,51.0,29.87,North,-999,-999.0,0.0,86,0.00,,---,0.00,VWS V14.01,2013-09-30 09:54:00,
2013-09-30 05:59:00,54.9,51.1,29.87,North,-999,-999.0,0.0,87,0.00,,---,0.00,VWS V14.01,2013-09-30 09:59:00,
2013-09-30 06:05:00,54.7,50.9,29.87,North,-999,-999.0,0.0,87,0.00,,---,0.00,VWS V14.01,2013-09-30 10:05:00,
2013-09-30 06:10:00,54.7,50.9,29.87,North,-999,-999.0,0.0,87,0.00,,---,0.00,VWS V14.01,2013-09-30 10:10:00,
2013-09-30 06:15:00,54.5,50.7,29.87,North,-999,-999.0,0.0,87,0.00,,---,0.00,VWS V14.01,2013-09-30 10:15:00,
2013-09-30 06:20:00,54.7,50.9,29.88,North,-999,-999.0,0.0,87,0.00,,---,0.00,VWS V14.01,2013-09-30 10:20:00,
2013-09-30 06:25:00,54.7,50.9,29.88,North,-999,-999.0,0.0,87,0.00,,---,0.00,VWS V14.01,2013-09-30 10:25:00,
2013-09-30 06:30:00,54.7,50.9,29.88,North,-999,-999.0,0.0,87,0.00,,---,0.00,VWS V14.01,2013-09-30 10:30:00,
2013-09-30 06:35:00,54.7,51.2,29.88,North,-999,-999.0,0.0,88,0.00,,---,0.00,VWS V14.01,2013-09-30 10:35:00,
2013-09-30 06:40:00,54.7,51.2,29.88,North,-999,-999.0,0.0,88,0.00,,---,0.00,VWS V14.01,2013-09-30 10:40:00,
2013-09-30 06:45:00,54.9,51.4,29.88,North,-999,-999.0,0.0,88,0.00,,---,0.00,VWS V14.01,2013-09-30 10:45:00,
2013-09-30 06:50:00,55.1,51.6,29.88,North,-999,-999.0,0.0,88,0.00,,---,0.00,VWS V14.01,2013-09-30 10:50:00,
2013-09-30 06:55:00,55.3,51.8,29.89,North,-999,-999.0,0.0,88,0.00,,---,0.00,VWS V14.01,2013-09-30 10:55:00,
2013-09-30 07:00:00,55.4,51.9,29.89,North,-999,-999.0,0.0,88,0.00,,---,0.00,VWS V14.01,2013-09-30 11:00:00,
2013-09-30 07:06:00,55.6,52.1,29.89,North,-999,-999.0,0.0,88,0.00,,---,0.00,VWS V14.01,2013-09-30 11:06:00,
2013-09-30 07:11:00,55.6,52.1,29.89,North,-999,-999.0,0.0,88,0.00,,---,0.00,VWS V14.01,2013-09-30 11:11:00,
2013-09-30 07:16:00,55.8,52.3,29.89,North,-999,-999.0,0.0,88,0.00,,---,0.00,VWS V14.01,2013-09-30 11:16:00,
2013-09-30 07:21:00,55.8,52.3,29.89,North,-999,-999.0,0.0,88,0.00,,---,0.00,VWS V14.01,2013-09-30 11:21:00,
2013-09-30 07:26:00,55.8,52.3,29.89,North,-999,-999.0,0.0,88,0.00,,---,0.00,VWS V14.01,2013-09-30 11:26:00,
2013-09-30 07:31:00,55.8,52.3,29.89,North,-999,-999.0,0.0,88,0.00,,---,0.00,VWS V14.01,2013-09-30 11:31:00,
2013-09-30 07:36:00,55.8,52.3,29.90,North,-999,-999.0,0.0,88,0.00,,---,0.00,VWS V14.01,2013-09-30 11:36:00,
2013-09-30 07:41:00,56.2,52.7,29.90,North,-999,-999.0,0.0,88,0.00,,---,0.00,VWS V14.01,2013-09-30 11:41:00,
2013-09-30 07:46:00,56.3,52.8,29.90,North,-999,-999.0,0.0,88,0.00,,---,0.00,VWS V14.01,2013-09-30 11:46:00,
2013-09-30 07:51:00,56.5,53.0,29.90,North,-999,-999.0,0.0,88,0.00,,---,0.00,VWS V14.01,2013-09-30 11:51:00,
2013-09-30 07:57:00,56.7,53.5,29.90,North,-999,-999.0,0.0,89,0.00,,---,0.00,VWS V14.01,2013-09-30 11:57:00,
2013-09-30 08:03:00,56.9,53.7,29.90,North,-999,-999.0,0.0,89,0.00,,---,0.00,VWS V14.01,2013-09-30 12:03:00,
2013-09-30 08:08:00,57.1,53.9,29.90,North,-999,-999.0,0.0,89,0.00,,---,0.00,VWS V14.01,2013-09-30 12:08:00,
2013-09-30 08:13:00,57.4,54.2,29.90,North,-999,-999.0,0.0,89,0.00,,---,0.00,VWS V14.01,2013-09-30 12:13:00,
2013-09-30 08:18:00,57.6,54.4,29.90,North,-999,-999.0,0.0,89,0.00,,---,0.00,VWS V14.01,2013-09-30 12:18:00,
2013-09-30 08:23:00,58.0,54.8,29.90,North,-999,-999.0,0.0,89,0.00,,---,0.00,VWS V14.01,2013-09-30 12:23:00,
2013-09-30 08:28:00,58.3,55.4,29.90,North,-999,-999.0,0.0,90,0.00,,---,0.00,VWS V14.01,2013-09-30 12:28:00,
2013-09-30 08:33:00,58.5,55.6,29.90,North,-999,-999.0,0.0,90,0.00,,---,0.00,VWS V14.01,2013-09-30 12:33:00,
2013-09-30 08:38:00,59.0,55.8,29.90,North,-999,-999.0,0.0,89,0.00,,---,0.00,VWS V14.01,2013-09-30 12:38:00,
2013-09-30 08:43:00,59.4,56.2,29.90,North,-999,-999.0,0.0,89,0.00,,---,0.00,VWS V14.01,2013-09-30 12:43:00,
2013-09-30 08:48:00,59.9,56.7,29.90,North,-999,-999.0,0.0,89,0.00,,---,0.00,VWS V14.01,2013-09-30 12:48:00,
2013-09-30 08:53:00,60.5,57.2,29.91,North,-999,-999.0,0.0,89,0.00,,---,0.00,VWS V14.01,2013-09-30 12:53:00,
2013-09-30 08:58:00,60.8,57.2,29.90,North,-999,-999.0,0.0,88,0.00,,---,0.00,VWS V14.01,2013-09-30 12:58:00,
2013-09-30 09:04:00,61.4,57.8,29.91,North,-999,-999.0,0.0,88,0.00,,---,0.00,VWS V14.01,2013-09-30 13:04:00,
2013-09-30 09:09:00,61.6,57.7,29.91,North,-999,-999.0,0.0,87,0.00,,---,0.00,VWS V14.01,2013-09-30 13:09:00,
2013-09-30 09:14:00,61.9,58.0,29.91,North,-999,-999.0,0.0,87,0.00,,---,0.00,VWS V14.01,2013-09-30 13:14:00,
2013-09-30 09:19:00,62.3,58.4,29.90,North,-999,-999.0,0.0,87,0.00,,---,0.00,VWS V14.01,2013-09-30 13:19:00,
2013-09-30 09:24:00,62.6,58.7,29.91,North,-999,-999.0,0.0,87,0.00,,---,0.00,VWS V14.01,2013-09-30 13:24:00,
2013-09-30 09:29:00,63.4,59.2,29.90,North,-999,-999.0,0.0,86,0.00,,---,0.00,VWS V14.01,2013-09-30 13:29:00,
2013-09-30 09:34:00,64.1,59.5,29.91,North,-999,-999.0,0.0,85,0.00,,---,0.00,VWS V14.01,2013-09-30 13:34:00,
2013-09-30 09:39:00,64.8,60.2,29.91,North,-999,-999.0,0.0,85,0.00,,---,0.00,VWS V14.01,2013-09-30 13:39:00,
2013-09-30 09:44:00,65.2,60.2,29.91,North,-999,-999.0,0.0,84,0.00,,---,0.00,VWS V14.01,2013-09-30 13:44:00,
2013-09-30 09:49:00,65.9,60.6,29.90,North,-999,-999.0,0.0,83,0.00,,---,0.00,VWS V14.01,2013-09-30 13:49:00,
2013-09-30 09:54:00,66.8,61.1,29.90,North,-999,-999.0,0.0,82,0.00,,---,0.00,VWS V14.01,2013-09-30 13:54:00,
2013-09-30 09:59:00,69.5,63.1,29.91,North,-999,-999.0,0.0,80,0.00,,---,0.00,VWS V14.01,2013-09-30 13:59:00,
2013-09-30 10:04:00,72.7,63.2,29.90,North,-999,-999.0,0.0,72,0.00,,---,0.00,VWS V14.01,2013-09-30 14:04:00,
2013-09-30 10:10:00,76.1,64.8,29.91,North,-999,-999.0,0.0,68,0.00,,---,0.00,VWS V14.01,2013-09-30 14:10:00,
2013-09-30 10:15:00,78.3,65.6,29.91,North,-999,-999.0,0.0,65,0.00,,---,0.00,VWS V14.01,2013-09-30 14:15:00,
2013-09-30 10:20:00,80.5,67.2,29.91,North,-999,-999.0,0.0,64,0.00,,---,0.00,VWS V14.01,2013-09-30 14:20:00,
2013-09-30 10:25:00,81.4,65.2,29.91,North,-999,-999.0,0.0,58,0.00,,---,0.00,VWS V14.01,2013-09-30 14:25:00,
2013-09-30 10:30:00,81.4,63.7,29.91,North,-999,-999.0,0.0,55,0.00,,---,0.00,VWS V14.01,2013-09-30 14:30:00,
2013-09-30 10:35:00,82.4,64.6,29.91,North,-999,-999.0,0.0,55,0.00,,---,0.00,VWS V14.01,2013-09-30 14:35:00,
2013-09-30 10:40:00,83.2,62.7,29.90,North,-999,-999.0,0.0,50,0.00,,---,0.00,VWS V14.01,2013-09-30 14:40:00,
2013-09-30 10:45:00,82.8,61.7,29.90,North,-999,-999.0,0.0,49,0.00,,---,0.00,VWS V14.01,2013-09-30 14:45:00,
2013-09-30 10:51:00,83.9,63.3,29.90,North,-999,-999.0,0.0,50,0.00,,---,0.00,VWS V14.01,2013-09-30 14:51:00,
2013-09-30 10:56:00,84.1,61.7,29.90,North,-999,-999.0,0.0,47,0.00,,---,0.00,VWS V14.01,2013-09-30 14:56:00,
2013-09-30 11:01:00,84.2,62.4,29.90,North,-999,-999.0,0.0,48,0.00,,---,0.00,VWS V14.01,2013-09-30 15:01:00,
2013-09-30 11:06:00,85.0,61.3,29.90,North,-999,-999.0,0.0,45,0.00,,---,0.00,VWS V14.01,2013-09-30 15:06:00,
2013-09-30 11:12:00,82.6,59.1,29.90,North,-999,-999.0,0.0,45,0.00,,---,0.00,VWS V14.01,2013-09-30 15:12:00,
2013-09-30 11:17:00,82.8,60.5,29.90,North,-999,-999.0,0.0,47,0.00,,---,0.00,VWS V14.01,2013-09-30 15:17:00,
2013-09-30 11:22:00,84.6,61.6,29.90,North,-999,-999.0,0.0,46,0.00,,---,0.00,VWS V14.01,2013-09-30 15:22:00,
2013-09-30 11:27:00,85.9,59.5,29.90,North,-999,-999.0,0.0,41,0.00,,---,0.00,VWS V14.01,2013-09-30 15:27:00,
2013-09-30 11:32:00,84.1,57.2,29.90,North,-999,-999.0,0.0,40,0.00,,---,0.00,VWS V14.01,2013-09-30 15:32:00,
2013-09-30 11:37:00,82.6,58.5,29.90,North,-999,-999.0,0.0,44,0.00,,---,0.00,VWS V14.01,2013-09-30 15:37:00,
2013-09-30 11:42:00,82.6,59.1,29.90,North,-999,-999.0,0.0,45,0.00,,---,0.00,VWS V14.01,2013-09-30 15:42:00,
2013-09-30 11:47:00,85.0,62.5,29.90,North,-999,-999.0,0.0,47,0.00,,---,0.00,VWS V14.01,2013-09-30 15:47:00,
2013-09-30 11:52:00,84.6,58.3,29.90,North,-999,-999.0,0.0,41,0.00,,---,0.00,VWS V14.01,2013-09-30 15:52:00,
2013-09-30 11:57:00,83.3,59.1,29.90,North,-999,-999.0,0.0,44,0.00,,---,0.00,VWS V14.01,2013-09-30 15:57:00,
2013-09-30 12:02:00,84.2,60.6,29.90,North,-999,-999.0,0.0,45,0.00,,---,0.00,VWS V14.01,2013-09-30 16:02:00,
2013-09-30 12:08:00,86.0,60.9,29.89,North,-999,-999.0,0.0,43,0.00,,---,0.00,VWS V14.01,2013-09-30 16:08:00,
2013-09-30 12:13:00,87.5,61.6,29.89,North,-999,-999.0,0.0,42,0.00,,---,0.00,VWS V14.01,2013-09-30 16:13:00,
2013-09-30 12:19:00,89.6,61.4,29.89,North,-999,-999.0,0.0,39,0.00,,---,0.00,VWS V14.01,2013-09-30 16:19:00,
2013-09-30 12:24:00,90.0,62.5,29.89,North,-999,-999.0,0.0,40,0.00,,---,0.00,VWS V14.01,2013-09-30 16:24:00,
2013-09-30 12:29:00,88.9,60.8,29.88,North,-999,-999.0,0.0,39,0.00,,---,0.00,VWS V14.01,2013-09-30 16:29:00,
2013-09-30 12:34:00,89.5,62.7,29.88,North,-999,-999.0,0.0,41,0.00,,---,0.00,VWS V14.01,2013-09-30 16:34:00,
2013-09-30 12:39:00,90.4,62.8,29.88,North,-999,-999.0,0.0,40,0.00,,---,0.00,VWS V14.01,2013-09-30 16:39:00,
2013-09-30 12:44:00,89.3,60.4,29.88,North,-999,-999.0,0.0,38,0.00,,---,0.00,VWS V14.01,2013-09-30 16:44:00,
2013-09-30 12:49:00,88.9,60.8,29.88,North,-999,-999.0,0.0,39,0.00,,---,0.00,VWS V14.01,2013-09-30 16:49:00,
2013-09-30 12:54:00,90.2,62.6,29.88,North,-999,-999.0,0.0,40,0.00,,---,0.00,VWS V14.01,2013-09-30 16:54:00,
2013-09-30 12:59:00,91.6,63.2,29.88,North,-999,-999.0,0.0,39,0.00,,---,0.00,VWS V14.01,2013-09-30 16:59:00,
2013-09-30 13:04:00,89.1,60.2,29.88,North,-999,-999.0,0.0,38,0.00,,---,0.00,VWS V14.01,2013-09-30 17:04:00,
2013-09-30 13:10:00,86.4,57.8,29.88,North,-999,-999.0,0.0,38,0.00,,---,0.00,VWS V14.01,2013-09-30 17:10:00,
2013-09-30 13:15:00,86.6,58.7,29.88,North,-999,-999.0,0.0,39,0.00,,---,0.00,VWS V14.01,2013-09-30 17:15:00,
2013-09-30 13:20:00,88.9,60.8,29.87,North,-999,-999.0,0.0,39,0.00,,---,0.00,VWS V14.01,2013-09-30 17:20:00,
2013-09-30 13:25:00,89.3,60.4,29.87,North,-999,-999.0,0.0,38,0.00,,---,0.00,VWS V14.01,2013-09-30 17:25:00,
2013-09-30 13:30:00,87.8,59.8,29.87,North,-999,-999.0,0.0,39,0.00,,---,0.00,VWS V14.01,2013-09-30 17:30:00,
2013-09-30 13:35:00,90.7,61.6,29.87,North,-999,-999.0,0.0,38,0.00,,---,0.00,VWS V14.01,2013-09-30 17:35:00,
2013-09-30 13:40:00,92.2,63.7,29.87,North,-999,-999.0,0.0,39,0.00,,---,0.00,VWS V14.01,2013-09-30 17:40:00,
2013-09-30 13:45:00,93.6,61.8,29.86,North,-999,-999.0,0.0,35,0.00,,---,0.00,VWS V14.01,2013-09-30 17:45:00,
2013-09-30 13:50:00,94.0,61.4,29.86,North,-999,-999.0,0.0,34,0.00,,---,0.00,VWS V14.01,2013-09-30 17:50:00,
2013-09-30 13:55:00,91.1,58.8,29.86,North,-999,-999.0,0.0,34,0.00,,---,0.00,VWS V14.01,2013-09-30 17:55:00,
2013-09-30 14:00:00,90.4,61.4,29.85,North,-999,-999.0,0.0,38,0.00,,---,0.00,VWS V14.01,2013-09-30 18:00:00,
2013-09-30 14:06:00,90.0,58.7,29.85,North,-999,-999.0,0.0,35,0.00,,---,0.00,VWS V14.01,2013-09-30 18:06:00,
2013-09-30 14:11:00,90.9,62.5,29.85,North,-999,-999.0,0.0,39,0.00,,---,0.00,VWS V14.01,2013-09-30 18:11:00,
2013-09-30 14:16:00,91.1,61.2,29.85,North,-999,-999.0,0.0,37,0.00,,---,0.00,VWS V14.01,2013-09-30 18:16:00,
2013-09-30 14:21:00,90.5,61.5,29.85,North,-999,-999.0,0.0,38,0.00,,---,0.00,VWS V14.01,2013-09-30 18:21:00,
2013-09-30 14:26:00,91.1,62.0,29.84,North,-999,-999.0,0.0,38,0.00,,---,0.00,VWS V14.01,2013-09-30 18:26:00,
2013-09-30 14:31:00,91.3,62.2,29.84,North,-999,-999.0,0.0,38,0.00,,---,0.00,VWS V14.01,2013-09-30 18:31:00,
2013-09-30 14:36:00,90.7,60.1,29.84,North,-999,-999.0,0.0,36,0.00,,---,0.00,VWS V14.01,2013-09-30 18:36:00,
2013-09-30 14:41:00,88.6,59.8,29.84,North,-999,-999.0,0.0,38,0.00,,---,0.00,VWS V14.01,2013-09-30 18:41:00,
2013-09-30 14:46:00,89.3,61.1,29.84,North,-999,-999.0,0.0,39,0.00,,---,0.00,VWS V14.01,2013-09-30 18:46:00,
2013-09-30 14:51:00,92.2,63.7,29.83,North,-999,-999.0,0.0,39,0.00,,---,0.00,VWS V14.01,2013-09-30 18:51:00,
2013-09-30 14:56:00,94.0,60.5,29.83,North,-999,-999.0,0.0,33,0.00,,---,0.00,VWS V14.01,2013-09-30 18:56:00,
2013-09-30 15:01:00,92.2,59.8,29.83,North,-999,-999.0,0.0,34,0.00,,---,0.00,VWS V14.01,2013-09-30 19:01:00,
2013-09-30 15:07:00,92.9,62.0,29.83,North,-999,-999.0,0.0,36,0.00,,---,0.00,VWS V14.01,2013-09-30 19:07:00,
2013-09-30 15:12:00,93.2,60.7,29.83,North,-999,-999.0,0.0,34,0.00,,---,0.00,VWS V14.01,2013-09-30 19:12:00,
2013-09-30 15:17:00,93.1,62.2,29.83,North,-999,-999.0,0.0,36,0.00,,---,0.00,VWS V14.01,2013-09-30 19:17:00,
2013-09-30 15:22:00,93.1,61.4,29.83,North,-999,-999.0,0.0,35,0.00,,---,0.00,VWS V14.01,2013-09-30 19:22:00,
2013-09-30 15:27:00,90.9,58.7,29.83,North,-999,-999.0,0.0,34,0.00,,---,0.00,VWS V14.01,2013-09-30 19:27:00,
2013-09-30 15:32:00,86.8,57.4,29.82,North,-999,-999.0,0.0,37,0.00,,---,0.00,VWS V14.01,2013-09-30 19:32:00,
2013-09-30 15:37:00,83.3,56.5,29.82,North,-999,-999.0,0.0,40,0.00,,---,0.00,VWS V14.01,2013-09-30 19:37:00,
2013-09-30 15:42:00,82.4,57.0,29.82,North,-999,-999.0,0.0,42,0.00,,---,0.00,VWS V14.01,2013-09-30 19:42:00,
2013-09-30 15:47:00,82.8,58.0,29.82,North,-999,-999.0,0.0,43,0.00,,---,0.00,VWS V14.01,2013-09-30 19:47:00,
2013-09-30 15:52:00,85.3,59.0,29.82,North,-999,-999.0,0.0,41,0.00,,---,0.00,VWS V14.01,2013-09-30 19:52:00,
2013-09-30 15:57:00,87.3,60.8,29.82,North,-999,-999.0,0.0,41,0.00,,---,0.00,VWS V14.01,2013-09-30 19:57:00,
2013-09-30 16:02:00,90.0,61.7,29.82,North,-999,-999.0,0.0,39,0.00,,---,0.00,VWS V14.01,2013-09-30 20:02:00,
2013-09-30 16:08:00,90.5,59.9,29.81,North,-999,-999.0,0.0,36,0.00,,---,0.00,VWS V14.01,2013-09-30 20:08:00,
2013-09-30 16:13:00,90.5,62.2,29.81,North,-999,-999.0,0.0,39,0.00,,---,0.00,VWS V14.01,2013-09-30 20:13:00,
2013-09-30 16:18:00,91.8,60.3,29.81,North,-999,-999.0,0.0,35,0.00,,---,0.00,VWS V14.01,2013-09-30 20:18:00,
2013-09-30 16:23:00,91.4,61.5,29.81,North,-999,-999.0,0.0,37,0.00,,---,0.00,VWS V14.01,2013-09-30 20:23:00,
2013-09-30 16:28:00,92.0,60.5,29.81,North,-999,-999.0,0.0,35,0.00,,---,0.00,VWS V14.01,2013-09-30 20:28:00,
2013-09-30 16:33:00,92.3,60.7,29.81,North,-999,-999.0,0.0,35,0.00,,---,0.00,VWS V14.01,2013-09-30 20:33:00,
2013-09-30 16:38:00,93.6,61.8,29.81,North,-999,-999.0,0.0,35,0.00,,---,0.00,VWS V14.01,2013-09-30 20:38:00,
2013-09-30 16:43:00,93.2,61.5,29.81,North,-999,-999.0,0.0,35,0.00,,---,0.00,VWS V14.01,2013-09-30 20:43:00,
2013-09-30 16:48:00,92.9,59.6,29.81,North,-999,-999.0,0.0,33,0.00,,---,0.00,VWS V14.01,2013-09-30 20:48:00,
2013-09-30 16:53:00,92.2,60.6,29.81,North,-999,-999.0,0.0,35,0.00,,---,0.00,VWS V14.01,2013-09-30 20:53:00,
2013-09-30 16:58:00,91.4,60.7,29.81,North,-999,-999.0,0.0,36,0.00,,---,0.00,VWS V14.01,2013-09-30 20:58:00,
2013-09-30 17:04:00,91.3,59.8,29.81,North,-999,-999.0,0.0,35,0.00,,---,0.00,VWS V14.01,2013-09-30 21:04:00,
2013-09-30 17:09:00,88.2,57.9,29.81,North,-999,-999.0,0.0,36,0.00,,---,0.00,VWS V14.01,2013-09-30 21:09:00,
2013-09-30 17:14:00,88.2,59.4,29.81,North,-999,-999.0,0.0,38,0.00,,---,0.00,VWS V14.01,2013-09-30 21:14:00,
2013-09-30 17:19:00,87.8,59.8,29.81,North,-999,-999.0,0.0,39,0.00,,---,0.00,VWS V14.01,2013-09-30 21:19:00,
2013-09-30 17:24:00,88.4,60.3,29.81,North,-999,-999.0,0.0,39,0.00,,---,0.00,VWS V14.01,2013-09-30 21:24:00,
2013-09-30 17:29:00,88.4,59.6,29.81,North,-999,-999.0,0.0,38,0.00,,---,0.00,VWS V14.01,2013-09-30 21:29:00,
2013-09-30 17:34:00,88.0,60.0,29.82,North,-999,-999.0,0.0,39,0.00,,---,0.00,VWS V14.01,2013-09-30 21:34:00,
2013-09-30 17:39:00,88.0,60.0,29.81,North,-999,-999.0,0.0,39,0.00,,---,0.00,VWS V14.01,2013-09-30 21:39:00,
2013-09-30 17:44:00,88.2,60.1,29.82,North,-999,-999.0,0.0,39,0.00,,---,0.00,VWS V14.01,2013-09-30 21:44:00,
2013-09-30 17:49:00,88.6,60.5,29.82,North,-999,-999.0,0.0,39,0.00,,---,0.00,VWS V14.01,2013-09-30 21:49:00,
2013-09-30 17:54:00,87.3,60.0,29.82,North,-999,-999.0,0.0,40,0.00,,---,0.00,VWS V14.01,2013-09-30 21:54:00,
2013-09-30 17:59:00,86.4,58.5,29.82,North,-999,-999.0,0.0,39,0.00,,---,0.00,VWS V14.01,2013-09-30 21:59:00,
2013-09-30 18:05:00,86.6,58.7,29.82,North,-999,-999.0,0.0,39,0.00,,---,0.00,VWS V14.01,2013-09-30 22:05:00,
2013-09-30 18:10:00,86.2,59.8,29.82,North,-999,-999.0,0.0,41,0.00,,---,0.00,VWS V14.01,2013-09-30 22:10:00,
2013-09-30 18:15:00,86.2,59.8,29.82,North,-999,-999.0,0.0,41,0.00,,---,0.00,VWS V14.01,2013-09-30 22:15:00,
2013-09-30 18:20:00,86.0,59.6,29.82,North,-999,-999.0,0.0,41,0.00,,---,0.00,VWS V14.01,2013-09-30 22:20:00,
2013-09-30 18:25:00,83.3,57.8,29.83,North,-999,-999.0,0.0,42,0.00,,---,0.00,VWS V14.01,2013-09-30 22:25:00,
2013-09-30 18:30:00,81.2,57.2,29.83,North,-999,-999.0,0.0,44,0.00,,---,0.00,VWS V14.01,2013-09-30 22:30:00,
2013-09-30 18:35:00,79.7,57.1,29.83,North,-999,-999.0,0.0,46,0.00,,---,0.00,VWS V14.01,2013-09-30 22:35:00,
2013-09-30 18:40:00,78.8,58.0,29.83,North,-999,-999.0,0.0,49,0.00,,---,0.00,VWS V14.01,2013-09-30 22:40:00,
2013-09-30 18:45:00,77.4,57.9,29.83,North,-999,-999.0,0.0,51,0.00,,---,0.00,VWS V14.01,2013-09-30 22:45:00,
2013-09-30 18:50:00,76.5,57.6,29.83,North,-999,-999.0,0.0,52,0.00,,---,0.00,VWS V14.01,2013-09-30 22:50:00,
2013-09-30 18:55:00,75.4,57.6,29.83,North,-999,-999.0,0.0,54,0.00,,---,0.00,VWS V14.01,2013-09-30 22:55:00,
2013-09-30 19:01:00,74.3,57.6,29.83,North,-999,-999.0,0.0,56,0.00,,---,0.00,VWS V14.01,2013-09-30 23:01:00,
2013-09-30 19:06:00,73.6,57.4,29.83,North,-999,-999.0,0.0,57,0.00,,---,0.00,VWS V14.01,2013-09-30 23:06:00,
2013-09-30 19:11:00,73.1,57.5,29.83,North,-999,-999.0,0.0,58,0.00,,---,0.00,VWS V14.01,2013-09-30 23:11:00,
2013-09-30 19:16:00,72.4,57.3,29.84,North,-999,-999.0,0.0,59,0.00,,---,0.00,VWS V14.01,2013-09-30 23:16:00,
2013-09-30 19:21:00,71.5,57.4,29.84,North,-999,-999.0,0.0,61,0.00,,---,0.00,VWS V14.01,2013-09-30 23:21:00,
2013-09-30 19:26:00,70.7,56.6,29.84,North,-999,-999.0,0.0,61,0.00,,---,0.00,VWS V14.01,2013-09-30 23:26:00,
2013-09-30 19:31:00,70.2,56.6,29.84,North,-999,-999.0,0.0,62,0.00,,---,0.00,VWS V14.01,2013-09-30 23:31:00,
2013-09-30 19:36:00,69.7,56.6,29.84,North,-999,-999.0,0.0,63,0.00,,---,0.00,VWS V14.01,2013-09-30 23:36:00,
2013-09-30 19:41:00,68.9,57.1,29.84,North,-999,-999.0,0.0,66,0.00,,---,0.00,VWS V14.01,2013-09-30 23:41:00,
2013-09-30 19:46:00,68.2,56.4,29.84,North,-999,-999.0,0.0,66,0.00,,---,0.00,VWS V14.01,2013-09-30 23:46:00,
2013-09-30 19:51:00,67.9,56.5,29.84,North,-999,-999.0,0.0,67,0.00,,---,0.00,VWS V14.01,2013-09-30 23:51:00,
2013-09-30 19:56:00,67.3,56.4,29.84,North,-999,-999.0,0.0,68,0.00,,---,0.00,VWS V14.01,2013-09-30 23:56:00,
2013-09-30 20:02:00,67.0,56.5,29.85,North,-999,-999.0,0.0,69,0.00,,---,0.00,VWS V14.01,2013-10-01 00:02:00,
2013-09-30 20:07:00,66.4,56.3,29.85,North,-999,-999.0,0.0,70,0.00,,---,0.00,VWS V14.01,2013-10-01 00:07:00,
2013-09-30 20:12:00,66.1,56.0,29.85,North,-999,-999.0,0.0,70,0.00,,---,0.00,VWS V14.01,2013-10-01 00:12:00,
2013-09-30 20:17:00,65.9,55.8,29.85,North,-999,-999.0,0.0,70,0.00,,---,0.00,VWS V14.01,2013-10-01 00:17:00,
2013-09-30 20:22:00,65.7,56.0,29.85,North,-999,-999.0,0.0,71,0.00,,---,0.00,VWS V14.01,2013-10-01 00:22:00,
2013-09-30 20:27:00,65.5,55.9,29.85,North,-999,-999.0,0.0,71,0.00,,---,0.00,VWS V14.01,2013-10-01 00:27:00,
2013-09-30 20:32:00,65.2,56.0,29.85,North,-999,-999.0,0.0,72,0.00,,---,0.00,VWS V14.01,2013-10-01 00:32:00,
2013-09-30 20:37:00,65.0,55.8,29.85,North,-999,-999.0,0.0,72,0.00,,---,0.00,VWS V14.01,2013-10-01 00:37:00,
2013-09-30 20:42:00,64.8,56.0,29.86,North,-999,-999.0,0.0,73,0.00,,---,0.00,VWS V14.01,2013-10-01 00:42:00,
2013-09-30 20:47:00,64.4,55.6,29.86,North,-999,-999.0,0.0,73,0.00,,---,0.00,VWS V14.01,2013-10-01 00:47:00,
2013-09-30 20:52:00,64.3,55.8,29.86,North,-999,-999.0,0.0,74,0.00,,---,0.00,VWS V14.01,2013-10-01 00:52:00,
2013-09-30 20:57:00,64.1,55.7,29.86,North,-999,-999.0,0.0,74,0.00,,---,0.00,VWS V14.01,2013-10-01 00:57:00,
2013-09-30 21:03:00,63.7,55.3,29.86,North,-999,-999.0,0.0,74,0.00,,---,0.00,VWS V14.01,2013-10-01 01:03:00,
2013-09-30 21:08:00,63.7,55.6,29.87,North,-999,-999.0,0.0,75,0.00,,---,0.00,VWS V14.01,2013-10-01 01:08:00,
2013-09-30 21:13:00,63.5,55.4,29.87,North,-999,-999.0,0.0,75,0.00,,---,0.00,VWS V14.01,2013-10-01 01:13:00,
2013-09-30 21:18:00,63.2,55.5,29.87,North,-999,-999.0,0.0,76,0.00,,---,0.00,VWS V14.01,2013-10-01 01:18:00,
2013-09-30 21:23:00,63.0,55.3,29.87,North,-999,-999.0,0.0,76,0.00,,---,0.00,VWS V14.01,2013-10-01 01:23:00,
2013-09-30 21:28:00,62.8,55.1,29.87,North,-999,-999.0,0.0,76,0.00,,---,0.00,VWS V14.01,2013-10-01 01:28:00,
2013-09-30 21:33:00,62.6,54.9,29.87,North,-999,-999.0,0.0,76,0.00,,---,0.00,VWS V14.01,2013-10-01 01:33:00,
2013-09-30 21:38:00,62.5,54.8,29.87,North,-999,-999.0,0.0,76,0.00,,---,0.00,VWS V14.01,2013-10-01 01:38:00,
2013-09-30 21:43:00,62.3,55.0,29.88,North,-999,-999.0,0.0,77,0.00,,---,0.00,VWS V14.01,2013-10-01 01:43:00,
2013-09-30 21:49:00,62.1,54.8,29.88,North,-999,-999.0,0.0,77,0.00,,---,0.00,VWS V14.01,2013-10-01 01:49:00,
2013-09-30 21:54:00,61.9,54.6,29.88,North,-999,-999.0,0.0,77,0.00,,---,0.00,VWS V14.01,2013-10-01 01:54:00,
2013-09-30 21:59:00,61.9,55.0,29.88,North,-999,-999.0,0.0,78,0.00,,---,0.00,VWS V14.01,2013-10-01 01:59:00,
2013-09-30 22:05:00,61.7,54.8,29.88,North,-999,-999.0,0.0,78,0.00,,---,0.00,VWS V14.01,2013-10-01 02:05:00,
2013-09-30 22:10:00,61.6,54.7,29.88,North,-999,-999.0,0.0,78,0.00,,---,0.00,VWS V14.01,2013-10-01 02:10:00,
2013-09-30 22:15:00,61.4,54.5,29.89,North,-999,-999.0,0.0,78,0.00,,---,0.00,VWS V14.01,2013-10-01 02:15:00,
2013-09-30 22:20:00,61.2,54.6,29.88,North,-999,-999.0,0.0,79,0.00,,---,0.00,VWS V14.01,2013-10-01 02:20:00,
2013-09-30 22:25:00,61.0,54.5,29.88,North,-999,-999.0,0.0,79,0.00,,---,0.00,VWS V14.01,2013-10-01 02:25:00,
2013-09-30 22:31:00,60.8,54.3,29.89,North,-999,-999.0,0.0,79,0.00,,---,0.00,VWS V14.01,2013-10-01 02:31:00,
2013-09-30 22:36:00,60.8,54.3,29.88,North,-999,-999.0,0.0,79,0.00,,---,0.00,VWS V14.01,2013-10-01 02:36:00,
2013-09-30 22:41:00,60.7,54.2,29.88,North,-999,-999.0,0.0,79,0.00,,---,0.00,VWS V14.01,2013-10-01 02:41:00,
2013-09-30 22:46:00,60.7,54.2,29.89,North,-999,-999.0,0.0,79,0.00,,---,0.00,VWS V14.01,2013-10-01 02:46:00,
2013-09-30 22:51:00,60.5,54.0,29.88,North,-999,-999.0,0.0,79,0.00,,---,0.00,VWS V14.01,2013-10-01 02:51:00,
2013-09-30 22:56:00,60.3,53.8,29.89,North,-999,-999.0,0.0,79,0.00,,---,0.00,VWS V14.01,2013-10-01 02:56:00,
2013-09-30 23:01:00,60.3,53.8,29.89,North,-999,-999.0,0.0,79,0.00,,---,0.00,VWS V14.01,2013-10-01 03:01:00,
2013-09-30 23:07:00,60.1,53.6,29.88,North,-999,-999.0,0.0,79,0.00,,---,0.00,VWS V14.01,2013-10-01 03:07:00,
2013-09-30 23:12:00,59.9,53.7,29.89,North,-999,-999.0,0.0,80,0.00,,---,0.00,VWS V14.01,2013-10-01 03:12:00,
2013-09-30 23:17:00,59.8,53.6,29.88,North,-999,-999.0,0.0,80,0.00,,---,0.00,VWS V14.01,2013-10-01 03:17:00,
2013-09-30 23:22:00,59.6,53.4,29.89,North,-999,-999.0,0.0,80,0.00,,---,0.00,VWS V14.01,2013-10-01 03:22:00,
2013-09-30 23:27:00,59.4,53.6,29.89,North,-999,-999.0,0.0,81,0.00,,---,0.00,VWS V14.01,2013-10-01 03:27:00,
2013-09-30 23:32:00,59.4,53.6,29.89,North,-999,-999.0,0.0,81,0.00,,---,0.00,VWS V14.01,2013-10-01 03:32:00,
2013-09-30 23:37:00,59.2,53.4,29.88,North,-999,-999.0,0.0,81,0.00,,---,0.00,VWS V14.01,2013-10-01 03:37:00,
2013-09-30 23:42:00,59.2,53.4,29.89,North,-999,-999.0,0.0,81,0.00,,---,0.00,VWS V14.01,2013-10-01 03:42:00,
2013-09-30 23:47:00,59.0,53.2,29.89,North,-999,-999.0,0.0,81,0.00,,---,0.00,VWS V14.01,2013-10-01 03:47:00,
2013-09-30 23:52:00,58.9,53.1,29.89,North,-999,-999.0,0.0,81,0.00,,---,0.00,VWS V14.01,2013-10-01 03:52:00,
2013-09-30 23:57:00,58.7,52.9,29.89,North,-999,-999.0,0.0,81,0.00,,---,0.00,VWS V14.01,2013-10-01 03:57:00,